FW1310 Weather Reports


Display with metric or nautical units.
time (UTC)temp
F
wind
direction
speed
MPH
gust
MPH
rain 1hr
in
rain 24hr
in
rain mn
in
humidity
%
barometer
mb
20220516193458 96 228 2.0 7.0 0.00 0.00 0.00 34 1001.5
20220516192958 96 202 3.0 7.0 0.00 0.00 0.00 32 1001.6
20220516192457 96 194 3.0 7.0 0.00 0.00 0.00 32 1001.7
20220516191957 95 181 3.0 5.0 0.00 0.00 0.00 32 1001.7
20220516191458 95 181 3.0 5.0 0.00 0.00 0.00 32 1001.8
20220516190957 95 174 1.0 3.0 0.00 0.00 0.00 34 1001.8
20220516190458 96 190 2.0 3.0 0.00 0.00 0.00 33 1001.9
20220516185958 96 149 3.0 6.0 0.00 0.00 0.00 34 1002.1
20220516185457 95 135 2.0 6.0 0.00 0.00 0.00 36 1002.0
20220516184957 95 212 4.0 7.0 0.00 0.00 0.00 36 1002.0
20220516184457 94 215 5.0 7.0 0.00 0.00 0.00 37 1002.2
20220516183957 93 205 4.0 7.0 0.00 0.00 0.00 39 1002.3
20220516183458 94 178 5.0 7.0 0.00 0.00 0.00 37 1002.2
20220516182958 94 213 4.0 9.0 0.00 0.00 0.00 37 1002.4
20220516182458 94 193 4.0 6.0 0.00 0.00 0.00 36 1002.4
20220516181958 93 246 2.0 9.0 0.00 0.00 0.00 36 1002.5
20220516181457 93 139 3.0 9.0 0.00 0.00 0.00 36 1002.6
20220516180958 93 204 4.0 9.0 0.00 0.00 0.00 37 1002.7
20220516180458 91 186 5.0 10.0 0.00 0.00 0.00 39 1002.7
20220516175957 92 198 2.0 8.0 0.00 0.00 0.00 41 1002.8
20220516175458 92 202 3.0 8.0 0.00 0.00 0.00 40 1002.9
20220516174958 92 106 6.0 7.0 0.00 0.00 0.00 39 1002.8
20220516174457 91 270 1.0 7.0 0.00 0.00 0.00 43 1003.0
20220516173958 91 202 2.0 9.0 0.00 0.00 0.00 45 1003.1
20220516173457 90 159 6.0 12.0 0.00 0.00 0.00 44 1003.1
20220516172957 91 250 3.0 9.0 0.00 0.00 0.00 45 1003.3
20220516172457 91 215 6.0 10.0 0.00 0.00 0.00 45 1003.3
20220516171957 89 252 6.0 7.0 0.00 0.00 0.00 50 1003.4
20220516171457 89 252 6.0 8.0 0.00 0.00 0.00 50 1003.4
20220516170958 90 226 6.0 8.0 0.00 0.00 0.00 50 1003.3
20220516170457 89 195 3.0 6.0 0.00 0.00 0.00 51 1003.5
20220516165957 89 283 2.0 6.0 0.00 0.00 0.00 51 1003.6
20220516165457 84 144 3.0 5.0 0.00 0.00 0.00 65 1003.4
20220516164957 84 144 3.0 5.0 0.00 0.00 0.00 65 1003.7
20220516164457 84 144 3.0 5.0 0.00 0.00 0.00 65 1003.6
20220516163958 84 144 3.0 5.0 0.00 0.00 0.00 65 1003.7
20220516163458 84 144 3.0 5.0 0.00 0.00 0.00 65 1003.6
20220516162958 84 144 3.0 5.0 0.00 0.00 0.00 65 1003.8
20220516162458 84 144 3.0 5.0 0.00 0.00 0.00 65 1003.7
20220516161958 84 144 3.0 5.0 0.00 0.00 0.00 65 1003.9
20220516161457 84 144 3.0 5.0 0.00 0.00 0.00 65 1003.6
20220516160958 84 144 3.0 5.0 0.00 0.00 0.00 65 1003.7
20220516160457 84 144 3.0 5.0 0.00 0.00 0.00 65 1003.8
20220516155958 84 144 3.0 5.0 0.00 0.00 0.00 65 1003.6
20220516155457 84 144 3.0 5.0 0.00 0.00 0.00 65 1003.7
20220516154957 82 159 3.0 5.0 0.00 0.00 0.00 80 1003.6
20220516154458 77 282 2.0 5.0 0.00 0.00 0.00 80 1003.8
20220516153957 77 282 2.0 5.0 0.00 0.00 0.00 80 1003.8
20220516153457 77 282 2.0 5.0 0.00 0.00 0.00 80 1003.6
20220516152957 77 282 2.0 5.0 0.00 0.00 0.00 80 1003.8
20220516152457 77 282 2.0 5.0 0.00 0.00 0.00 80 1003.7
20220516151957 77 282 2.0 5.0 0.00 0.00 0.00 80 1003.9
20220516151457 77 282 2.0 5.0 0.00 0.00 0.00 80 1004.0
20220516150957 77 282 2.0 5.0 0.00 0.00 0.00 80 1003.9
20220516150457 77 282 2.0 5.0 0.00 0.00 0.00 80 1004.0
20220516145957 77 282 2.0 5.0 0.00 0.00 0.00 80 1003.9
20220516145457 77 282 2.0 5.0 0.00 0.00 0.00 80 1004.0
20220516144957 77 282 2.0 5.0 0.00 0.00 0.00 80 1004.0
20220516144458 77 282 2.0 5.0 0.00 0.00 0.00 80 1003.8
20220516143957 77 172 3.0 5.0 0.00 0.00 0.00 81 1003.7
20220516143457 77 172 3.0 5.0 0.00 0.00 0.00 81 1003.9
20220516142958 77 172 3.0 5.0 0.00 0.00 0.00 81 1003.7
20220516142457 77 172 3.0 5.0 0.00 0.00 0.00 81 1003.9
20220516141957 76 254 1.0 5.0 0.00 0.00 0.00 82 1003.8
20220516141457 73 226 3.0 5.0 0.00 0.00 0.00 88 1003.9
20220516140957 73 226 3.0 5.0 0.00 0.00 0.00 88 1003.7
20220516140458 73 226 3.0 5.0 0.00 0.00 0.00 88 1003.5
20220516135957 73 226 3.0 5.0 0.00 0.00 0.00 88 1003.7
20220516135457 73 226 3.0 5.0 0.00 0.00 0.00 88 1003.6
20220516134957 73 226 3.0 5.0 0.00 0.00 0.00 88 1003.6
20220516134457 73 226 3.0 5.0 0.00 0.00 0.00 88 1003.6
20220516133958 73 226 3.0 5.0 0.00 0.00 0.00 88 1003.6
20220516133458 73 226 3.0 5.0 0.00 0.00 0.00 88 1003.6
20220516132958 73 226 3.0 5.0 0.00 0.00 0.00 88 1003.6
20220516132457 73 226 3.0 5.0 0.00 0.00 0.00 88 1003.6
20220516131958 73 226 3.0 5.0 0.00 0.00 0.00 88 1003.6
20220516131457 73 226 3.0 5.0 0.00 0.00 0.00 88 1003.6
20220516130958 73 226 3.0 5.0 0.00 0.00 0.00 88 1003.5
20220516130457 73 226 3.0 5.0 0.00 0.00 0.00 88 1003.3
20220516125957 73 226 3.0 5.0 0.00 0.00 0.00 88 1003.6
20220516125458 73 226 3.0 5.0 0.00 0.00 0.00 88 1003.9
20220516124958 71 155 1.0 3.0 0.00 0.00 0.00 89 1003.9
20220516124457 71 155 1.0 3.0 0.00 0.00 0.00 89 1003.7
20220516123958 71 155 1.0 3.0 0.00 0.00 0.00 89 1003.4
20220516123457 71 155 1.0 3.0 0.00 0.00 0.00 89 1003.4
20220516122958 71 155 1.0 3.0 0.00 0.00 0.00 89 1003.6
20220516122458 71 155 1.0 3.0 0.00 0.00 0.00 89 1003.4
20220516121957 71 155 1.0 3.0 0.00 0.00 0.00 89 1003.2
20220516121458 71 155 1.0 5.0 0.00 0.00 0.00 89 1003.3
20220516120957 73 158 3.0 5.0 0.00 0.00 0.00 85 1003.3
20220516120458 73 158 3.0 5.0 0.00 0.00 0.00 85 1003.2
20220516115957 73 158 3.0 5.0 0.00 0.00 0.00 85 1003.4
20220516115457 73 158 3.0 5.0 0.00 0.00 0.00 85 1003.5
20220516114958 73 158 3.0 5.0 0.00 0.00 0.00 85 1003.4
20220516114457 73 158 3.0 5.0 0.00 0.00 0.00 85 1003.2
20220516113958 73 158 3.0 5.0 0.00 0.00 0.00 85 1003.2
20220516113458 73 158 3.0 5.0 0.00 0.00 0.00 85 1003.2
20220516112957 73 158 3.0 5.0 0.00 0.00 0.00 85 1003.2
20220516112457 73 158 3.0 5.0 0.00 0.00 0.00 85 1003.0
20220516111957 73 158 3.0 5.0 0.00 0.00 0.00 85 1003.1
20220516111457 73 158 3.0 5.0 0.00 0.00 0.00 85 1003.2
20220516110958 73 158 3.0 5.0 0.00 0.00 0.00 85 1003.3
20220516110458 73 158 3.0 5.0 0.00 0.00 0.00 85 1003.2
20220516105957 73 158 3.0 5.0 0.00 0.00 0.00 85 1003.1
20220516105458 73 158 3.0 5.0 0.00 0.00 0.00 85 1003.2
20220516104957 73 158 3.0 5.0 0.00 0.00 0.00 85 1003.5
20220516104458 73 158 3.0 5.0 0.00 0.00 0.00 85 1003.7
20220516103957 73 158 3.0 5.0 0.00 0.00 0.00 85 1003.6
20220516103458 73 158 3.0 5.0 0.00 0.00 0.00 85 1003.6
20220516102957 73 158 3.0 5.0 0.00 0.00 0.00 85 1003.7
20220516102457 73 158 3.0 5.0 0.00 0.00 0.00 85 1003.8
20220516101958 73 158 3.0 5.0 0.00 0.00 0.00 85 1003.7
20220516101458 73 158 3.0 5.0 0.00 0.00 0.00 85 1003.6
20220516100958 73 158 3.0 5.0 0.00 0.00 0.00 85 1003.4
20220516100458 73 158 3.0 5.0 0.00 0.00 0.00 85 1003.4
20220516095958 73 158 3.0 5.0 0.00 0.00 0.00 85 1003.5
20220516095458 73 158 3.0 5.0 0.00 0.00 0.00 85 1003.5
20220516094958 73 158 3.0 5.0 0.00 0.00 0.00 85 1003.7
20220516094457 73 158 3.0 5.0 0.00 0.00 0.00 85 1003.6
20220516093958 73 158 4.0 8.0 0.00 0.00 0.00 85 1003.4
20220516093458 74 169 7.0 8.0 0.00 0.00 0.00 81 1003.4
20220516092958 74 169 7.0 8.0 0.00 0.00 0.00 81 1003.2
20220516092457 74 169 7.0 8.0 0.00 0.00 0.00 81 1003.2
20220516091957 74 169 7.0 8.0 0.00 0.00 0.00 81 1003.0
20220516091457 74 169 7.0 8.0 0.00 0.00 0.00 81 1003.4
20220516090958 74 169 7.0 8.0 0.00 0.00 0.00 81 1003.3
20220516090458 74 169 7.0 8.0 0.00 0.00 0.00 81 1003.2
20220516085957 74 169 7.0 8.0 0.00 0.00 0.00 81 1003.4
20220516085458 74 169 7.0 8.0 0.00 0.00 0.00 81 1003.6
20220516084958 74 169 7.0 8.0 0.00 0.00 0.00 81 1003.4
20220516084457 74 169 7.0 8.0 0.00 0.00 0.00 81 1003.3
20220516083957 74 169 7.0 8.0 0.00 0.00 0.00 81 1003.4
20220516083458 74 169 7.0 8.0 0.00 0.00 0.00 81 1003.1
20220516082958 74 169 7.0 8.0 0.00 0.00 0.00 81 1003.3
20220516082457 74 169 7.0 8.0 0.00 0.00 0.00 81 1003.3
20220516081957 74 169 7.0 8.0 0.00 0.00 0.00 81 1003.5
20220516081457 74 169 7.0 8.0 0.00 0.00 0.00 81 1003.9
20220516080958 74 169 7.0 8.0 0.00 0.00 0.00 81 1003.1
20220516080458 74 169 7.0 8.0 0.00 0.00 0.00 81 1002.6
20220516075957 74 169 7.0 8.0 0.00 0.00 0.00 81 1003.4
20220516075458 74 169 7.0 8.0 0.00 0.00 0.00 81 1003.2
20220516074957 74 169 7.0 8.0 0.00 0.00 0.00 81 1002.6
20220516074458 76 194 5.0 7.0 0.00 0.00 0.00 74 1002.8
20220516073958 76 194 5.0 7.0 0.00 0.00 0.00 74 1001.8
20220516073458 76 194 5.0 7.0 0.00 0.00 0.00 74 1000.5
20220516072958 76 194 5.0 7.0 0.00 0.00 0.00 74 1000.0
20220516071958 76 194 5.0 7.0 0.00 0.00 0.00 74 1000.2
20220516071457 76 194 5.0 7.0 0.00 0.00 0.00 74 1000.0
20220516070958 76 194 5.0 7.0 0.00 0.00 0.00 74 1000.0
20220516070457 76 194 5.0 7.0 0.00 0.00 0.00 74 1000.1
20220516065958 76 194 5.0 7.0 0.00 0.00 0.00 74 999.9
20220516065458 76 194 5.0 7.0 0.00 0.00 0.00 74 1000.1
20220516064958 76 194 5.0 7.0 0.00 0.00 0.00 74 1000.2
20220516064458 76 194 5.0 7.0 0.00 0.00 0.00 74 1000.2
20220516063957 76 194 5.0 7.0 0.00 0.00 0.00 74 1000.2
20220516063458 76 194 5.0 7.0 0.00 0.00 0.00 74 1000.0
20220516062957 76 194 5.0 7.0 0.00 0.00 0.00 74 999.9
20220516062457 76 194 5.0 7.0 0.00 0.00 0.00 74 999.9
20220516061958 76 194 5.0 8.0 0.00 0.00 0.00 74 999.7
20220516061458 77 195 7.0 8.0 0.00 0.00 0.00 72 999.7
20220516060958 77 195 7.0 8.0 0.00 0.00 0.00 72 999.7
20220516060457 77 195 7.0 8.0 0.00 0.00 0.00 72 999.7
20220516055958 77 195 7.0 9.0 0.00 0.00 0.00 72 999.6
20220516055458 78 204 6.0 9.0 0.00 0.00 0.00 69 999.6
20220516054958 78 204 6.0 9.0 0.00 0.00 0.00 69 999.9
20220516054457 78 204 6.0 9.0 0.00 0.00 0.00 69 999.8
20220516053958 78 204 6.0 12.0 0.00 0.00 0.00 69 999.7
20220516053457 78 188 7.0 12.0 0.00 0.00 0.00 69 999.8
20220516052957 78 217 5.0 9.0 0.00 0.00 0.00 68 999.8
20220516052458 79 130 7.0 9.0 0.00 0.00 0.00 66 999.7
20220516051958 79 130 7.0 9.0 0.00 0.00 0.00 66 999.7
20220516051458 79 130 7.0 9.0 0.00 0.00 0.00 66 999.8
20220516050958 79 130 7.0 9.0 0.00 0.00 0.00 66 999.7
20220516050458 79 202 5.0 8.0 0.00 0.00 0.00 65 999.6
20220516045958 79 191 7.0 8.0 0.00 0.00 0.00 65 999.9
20220516045457 80 198 6.0 8.0 0.00 0.00 0.00 63 999.8
20220516044958 80 198 6.0 8.0 0.00 0.00 0.00 63 999.7
20220516044457 80 203 5.0 9.0 0.00 0.00 0.00 63 999.7
20220516043958 80 209 7.0 12.0 0.00 0.00 0.00 63 999.6
20220516043458 81 218 8.0 12.0 0.00 0.00 0.00 62 999.5
20220516042958 81 218 8.0 12.0 0.00 0.00 0.00 62 999.7
20220516042458 81 206 7.0 12.0 0.00 0.00 0.00 62 999.7
20220516041958 81 166 7.0 12.0 0.00 0.00 0.00 61 999.8
20220516041457 81 203 10.0 16.0 0.00 0.00 0.00 60 999.5
20220516040957 82 221 5.0 13.0 0.00 0.00 0.00 59 999.6
20220516040458 82 211 9.0 15.0 0.00 0.00 0.00 58 999.7
20220516035958 82 130 7.0 14.0 0.00 0.00 0.00 57 999.5
20220516035458 82 214 10.0 14.0 0.00 0.00 0.00 56 999.6
20220516034958 83 196 9.0 14.0 0.00 0.00 0.00 55 999.5
20220516034458 83 214 7.0 13.0 0.00 0.00 0.00 54 999.3
20220516033957 83 195 5.0 12.0 0.00 0.00 0.00 52 999.2
20220516033457 83 198 8.0 12.0 0.00 0.00 0.00 51 999.0
20220516032958 83 171 5.0 9.0 0.00 0.00 0.00 50 998.9
20220516032457 83 241 5.0 8.0 0.00 0.00 0.00 49 998.8
20220516031958 84 216 6.0 8.0 0.00 0.00 0.00 48 998.8
20220516031458 84 211 9.0 14.0 0.00 0.00 0.00 48 998.8
20220516030958 84 186 6.0 10.0 0.00 0.00 0.00 48 998.5
20220516030458 83 215 7.0 9.0 0.00 0.00 0.00 48 998.5
20220516025958 84 205 3.0 5.0 0.00 0.00 0.00 47 998.5
20220516025458 84 205 3.0 5.0 0.00 0.00 0.00 47 998.5
20220516024957 84 205 5.0 10.0 0.00 0.00 0.00 47 998.5
20220516024457 84 214 6.0 10.0 0.00 0.00 0.00 47 998.5
20220516023958 84 200 6.0 9.0 0.00 0.00 0.00 47 998.4
20220516023457 84 215 5.0 8.0 0.00 0.00 0.00 47 998.5
20220516022958 84 181 5.0 7.0 0.00 0.00 0.00 47 998.5
20220516022458 84 169 6.0 8.0 0.00 0.00 0.00 47 998.5
20220516021957 85 167 6.0 8.0 0.00 0.00 0.00 47 998.6
20220516021457 85 217 6.0 8.0 0.00 0.00 0.00 47 998.6
20220516020957 85 207 6.0 8.0 0.00 0.00 0.00 47 998.5
20220516020457 85 204 3.0 6.0 0.00 0.00 0.00 47 998.7
20220516015958 85 207 5.0 8.0 0.00 0.00 0.00 47 998.6
20220516015458 85 212 6.0 8.0 0.00 0.00 0.00 46 998.5
20220516014958 86 208 5.0 8.0 0.00 0.00 0.00 46 998.7
20220516014457 86 195 5.0 7.0 0.00 0.00 0.00 45 998.6
20220516013958 86 195 5.0 7.0 0.00 0.00 0.00 45 998.6
20220516013458 86 195 5.0 7.0 0.00 0.00 0.00 45 998.7
20220516012958 86 204 3.0 8.0 0.00 0.00 0.00 45 998.7
20220516012458 86 177 5.0 9.0 0.00 0.00 0.00 45 998.7
20220516011957 87 205 6.0 9.0 0.00 0.00 0.00 44 998.8
20220516011458 87 186 5.0 10.0 0.00 0.00 0.00 44 998.6
20220516010958 87 174 7.0 10.0 0.00 0.00 0.00 44 998.4
20220516010458 87 259 5.0 7.0 0.00 0.00 0.00 44 998.4
20220516005957 88 206 3.0 8.0 0.00 0.00 0.00 44 998.3
20220516005458 88 164 6.0 10.0 0.00 0.00 0.00 44 998.5
20220516004958 88 121 6.0 9.0 0.00 0.00 0.00 44 998.3
20220516004458 89 161 7.0 9.0 0.00 0.00 0.00 44 998.4
20220516003958 89 216 6.0 14.0 0.00 0.00 0.00 43 998.3
20220516003457 89 199 6.0 10.0 0.00 0.00 0.00 43 998.6
20220516002957 89 239 8.0 13.0 0.00 0.00 0.00 43 998.6
20220516002458 90 158 9.0 13.0 0.00 0.00 0.00 42 998.5
20220516001958 90 214 4.0 9.0 0.00 0.00 0.00 41 998.4
20220516001458 91 180 7.0 12.0 0.00 0.00 0.00 41 998.5
20220516000957 91 101 3.0 7.0 0.00 0.00 0.00 40 998.6
20220516000458 91 101 5.0 13.0 0.00 0.00 0.00 40 998.6
20220515235958 91 232 6.0 12.0 0.00 0.00 0.00 40 998.6
20220515235458 92 179 9.0 12.0 0.00 0.00 0.00 38 998.6
20220515234958 92 212 6.0 8.0 0.00 0.00 0.00 38 998.5
20220515234457 92 222 5.0 8.0 0.00 0.00 0.00 38 998.5
20220515233958 92 201 6.0 14.0 0.00 0.00 0.00 38 998.6
20220515233458 93 206 9.0 14.0 0.00 0.00 0.00 37 998.5
20220515232958 93 192 4.0 7.0 0.00 0.00 0.00 37 998.6
20220515232458 93 178 3.0 5.0 0.00 0.00 0.00 38 998.4
20220515231958 93 185 5.0 10.0 0.00 0.00 0.00 38 998.4
20220515231457 93 211 6.0 10.0 0.00 0.00 0.00 38 998.4
20220515230958 95 226 3.0 5.0 0.00 0.00 0.00 37 998.6
20220515230458 95 226 3.0 7.0 0.00 0.00 0.00 37 998.5
20220515225957 94 152 2.0 3.0 0.00 0.00 0.00 36 998.6
20220515225458 94 176 3.0 9.0 0.00 0.00 0.00 36 998.5
20220515224958 95 289 4.0 9.0 0.00 0.00 0.00 36 998.6
20220515224458 94 200 6.0 13.0 0.00 0.00 0.00 36 998.8
20220515223957 95 247 6.0 13.0 0.00 0.00 0.00 36 998.8
20220515223458 95 154 4.0 10.0 0.00 0.00 0.00 36 998.7
20220515222957 95 248 8.0 10.0 0.00 0.00 0.00 36 998.8
20220515222458 95 248 8.0 10.0 0.00 0.00 0.00 36 998.7
20220515221957 95 139 3.0 5.0 0.00 0.00 0.00 37 998.9
20220515221458 95 139 4.0 8.0 0.00 0.00 0.00 37 998.9
20220515220957 95 180 3.0 5.0 0.00 0.00 0.00 37 999.1
20220515220457 95 118 1.0 2.0 0.00 0.00 0.00 35 999.0
20220515215958 95 118 1.0 5.0 0.00 0.00 0.00 35 999.1
20220515215457 96 198 3.0 5.0 0.00 0.00 0.00 37 999.1
20220515214957 96 198 3.0 5.0 0.00 0.00 0.00 37 999.1
20220515214457 96 244 2.0 8.0 0.00 0.00 0.00 37 999.1
20220515213958 96 228 5.0 8.0 0.00 0.00 0.00 36 999.2
20220515213458 96 216 6.0 9.0 0.00 0.00 0.00 36 999.2
20220515212958 96 197 7.0 9.0 0.00 0.00 0.00 37 999.2
20220515212458 96 197 7.0 9.0 0.00 0.00 0.00 37 999.5
20220515211958 95 182 5.0 9.0 0.00 0.00 0.00 37 999.4
20220515211458 96 205 6.0 12.0 0.00 0.00 0.00 37 999.5
20220515210958 96 172 7.0 12.0 0.00 0.00 0.00 36 999.5
20220515210458 96 172 7.0 12.0 0.00 0.00 0.00 36 999.5
20220515205958 96 251 5.0 9.0 0.00 0.00 0.00 37 999.8
20220515205458 95 178 8.0 9.0 0.00 0.00 0.00 36 1000.0
20220515204958 95 178 8.0 9.0 0.00 0.00 0.00 36 1000.0
20220515204458 95 178 8.0 9.0 0.00 0.00 0.00 36 1000.0
20220515203958 95 178 8.0 9.0 0.00 0.00 0.00 36 1000.1
20220515203458 95 219 2.0 9.0 0.00 0.00 0.00 36 1000.1
20220515202957 96 187 6.0 9.0 0.00 0.00 0.00 38 1000.2
20220515202457 95 232 8.0 9.0 0.00 0.00 0.00 36 1000.4
20220515201957 95 166 3.0 12.0 0.00 0.00 0.00 40 1000.4
20220515201458 96 179 5.0 10.0 0.00 0.00 0.00 37 1000.3
20220515200958 96 194 5.0 10.0 0.00 0.00 0.00 38 1000.4
20220515200458 96 191 5.0 10.0 0.00 0.00 0.00 38 1000.4
20220515195958 96 200 5.0 10.0 0.00 0.00 0.00 39 1000.7
20220515195457 95 226 6.0 10.0 0.00 0.00 0.00 43 1000.7
20220515194958 95 226 6.0 10.0 0.00 0.00 0.00 43 1000.7
20220515194458 94 202 6.0 8.0 0.00 0.00 0.00 42 1000.9
20220515193958 95 194 5.0 7.0 0.00 0.00 0.00 41 1000.9